Lampasas, TX (76550)

10:03 AM CDT on September 05, 2015 (GMT -0500)
Personal Weather Station | | Change Station
CLOSE
Current Station
Personal Weather Station
Location: Lampasas, TX
Elevation: 1017 ft
Nearby Weather Stations

Elev 1017 ft 31.08 °N, 98.05 °W | Updated 8 minutes ago

Mostly Cloudy
Mostly Cloudy
85.9 °F
Feels Like 95 °F
N
2.0
Wind Variable Wind from South
Gusts 12.0 mph

Today
High -- | Low -- °F
--% Chance of Precip.
Yesterday
High -- | Low -- °F
Precip. -- in
7:11 AM 7:51 PM
Waning Gibbous, 48% visible
Pressure 30.00 in
Visibility 10.0 miles
Clouds Mostly Cloudy 1900 ft
Mostly Cloudy 3200 ft
Heat Index 95 °F
Dew Point 75 °F
Humidity 70%
Rainfall 0.00 in
Snow Depth Not available.
UV 2 out of 12
Pollen 8.10 out of 12
Air Quality Not available.
Flu Activity Not available.
METAR KGRK 051458Z AUTO 19011G16KT 10SM BKN019 BKN032 28/22 A3003 RMK AO2 SLP158 T02800222 52012
Pressure 30.00 in
Visibility 10.0 miles
Clouds Mostly Cloudy 1900 ft
Mostly Cloudy 3200 ft
Heat Index 95 °F
Dew Point 75 °F
Humidity 70%
Rainfall 0.00 in
Snow Depth Not available.
UV 2 out of 12
Pollen 8.10 out of 12
Air Quality Not available.
Flu Activity Not available.
METAR KGRK 051458Z AUTO 19011G16KT 10SM BKN019 BKN032 28/22 A3003 RMK AO2 SLP158 T02800222 52012

10-Day Weather Forecast

×

Almanac

Astronomy

Sep. 05, 2015 Rise Set
Actual Time
Civil Twilight
Nautical Twilight
Astronomical Twilight
Moon
Length of Visible Light
Length of Day
Tomorrow will be .
, % of the Moon is Illuminated

Today's Extremes

State Highs State Lows

Community

WunderPhotos

Upload Photos

1,852,480 photos uploaded!

WunderBlogs® & News

Nearby

Air Quality

  Air Quality AQ Index Pollutant
Not available.

Snow Depth

Station Depth Elevation

Earthquake Activity

City Distance Mag. Time & Date
Minimum magnitude displayed is 2.5.

Coastal Water Temperatures

Place Temperature

Stations

Nearby Weather Stations

Station Location Temp. Windchill Dew Point Humidity Wind Precip. Elev Updated Type